Time;durP1;ratioP1;P1;durP2;ratioP2;P2;SDS_P1;SDS_P2;PMS_P1;PMS_P2;Temp;Humidity;BMP_temperature;BMP_pressure;BME280_temperature;BME280_humidity;BME280_pressure;Samples;Min_cycle;Max_cycle;Signal;HPM_P1;HPM_P2
2022/02/15 00:02:07;;;;;;;11.68;5.60;;;10.30;96.70;;;;;;5023273;28;20045;-83
2022/02/15 00:04:35;;;;;;;9.25;4.90;;;10.30;96.70;;;;;;5024057;28;20100;-84
2022/02/15 00:07:03;;;;;;;9.38;4.78;;;10.30;96.70;;;;;;5022120;28;20040;-83
2022/02/15 00:09:31;;;;;;;7.00;4.43;;;10.30;96.70;;;;;;5028518;28;20132;-83
2022/02/15 00:12:00;;;;;;;9.60;4.35;;;10.30;96.70;;;;;;5019968;28;20073;-83
2022/02/15 00:14:29;;;;;;;6.78;3.78;;;10.30;96.70;;;;;;5022495;28;20503;-83
2022/02/15 00:16:58;;;;;;;5.95;3.58;;;10.30;96.70;;;;;;5023568;28;20041;-83
2022/02/15 00:19:26;;;;;;;6.32;3.92;;;10.30;96.70;;;;;;5026761;28;20096;-83
2022/02/15 00:21:55;;;;;;;5.75;4.00;;;10.30;96.70;;;;;;5040248;28;20084;-83
2022/02/15 00:24:23;;;;;;;7.18;4.13;;;10.30;96.70;;;;;;5027673;28;20095;-83
2022/02/15 00:26:51;;;;;;;5.68;4.18;;;10.30;96.70;;;;;;5021217;28;20129;-83
2022/02/15 00:29:19;;;;;;;7.32;4.07;;;10.30;96.70;;;;;;5008247;28;20041;-83
2022/02/15 00:31:49;;;;;;;7.72;4.63;;;10.30;96.70;;;;;;5023002;28;20041;-83
2022/02/15 00:34:17;;;;;;;7.43;4.05;;;10.40;96.70;;;;;;5008675;28;20046;-83
2022/02/15 00:36:45;;;;;;;7.22;4.00;;;10.30;96.70;;;;;;5021292;28;20045;-83
2022/02/15 00:39:16;;;;;;;7.75;4.10;;;10.40;96.70;;;;;;5009921;28;20148;-83
2022/02/15 00:41:44;;;;;;;5.07;3.63;;;10.40;96.70;;;;;;5023313;28;20065;-84
2022/02/15 00:44:12;;;;;;;8.05;4.00;;;10.40;96.70;;;;;;5020640;28;20175;-84
2022/02/15 00:46:41;;;;;;;4.22;3.25;;;10.40;96.70;;;;;;5026107;28;20040;-83
2022/02/15 00:49:10;;;;;;;4.68;3.40;;;10.40;96.70;;;;;;5008466;28;20593;-84
2022/02/15 00:51:38;;;;;;;7.03;3.70;;;10.40;96.70;;;;;;5007906;28;20107;-84
2022/02/15 00:54:07;;;;;;;6.90;3.60;;;10.40;96.70;;;;;;5005091;28;20079;-84
2022/02/15 00:56:35;;;;;;;5.15;3.40;;;10.40;96.70;;;;;;5022640;28;20036;-84
2022/02/15 00:59:03;;;;;;;5.80;3.30;;;10.40;96.70;;;;;;5024339;28;20621;-85
2022/02/15 01:01:32;;;;;;;6.65;3.50;;;10.40;96.70;;;;;;5020373;28;20042;-84
2022/02/15 01:04:01;;;;;;;6.50;3.53;;;10.40;96.70;;;;;;5024922;28;20060;-84
2022/02/15 01:06:32;;;;;;;7.35;2.90;;;10.40;96.70;;;;;;5020381;28;20045;-84
2022/02/15 01:09:00;;;;;;;5.97;3.03;;;10.40;96.70;;;;;;5018897;28;20042;-84
2022/02/15 01:11:28;;;;;;;5.63;2.65;;;10.40;96.70;;;;;;5020484;28;20037;-83
2022/02/15 01:13:56;;;;;;;5.15;3.20;;;10.40;96.70;;;;;;5022401;28;20578;-82
2022/02/15 01:16:25;;;;;;;5.32;2.92;;;10.40;96.70;;;;;;5022135;28;20148;-84
2022/02/15 01:18:53;;;;;;;4.50;2.88;;;10.50;96.70;;;;;;5026022;28;20045;-84
2022/02/15 01:21:21;;;;;;;4.85;3.65;;;10.50;96.70;;;;;;5022070;28;20056;-86
2022/02/15 01:23:52;;;;;;;5.43;3.30;;;10.50;96.70;;;;;;5023706;28;20553;-85
2022/02/15 01:26:20;;;;;;;5.95;2.60;;;10.50;96.70;;;;;;5007050;28;20077;-86
2022/02/15 01:28:48;;;;;;;7.72;2.90;;;10.50;96.70;;;;;;5017872;28;20063;-86
2022/02/15 01:31:18;;;;;;;4.15;2.90;;;10.60;96.70;;;;;;5026507;28;20789;-84
2022/02/15 01:33:46;;;;;;;4.68;2.47;;;10.60;96.70;;;;;;5010777;28;20521;-84
2022/02/15 01:36:16;;;;;;;5.43;2.50;;;10.60;96.70;;;;;;5023141;28;20049;-86
2022/02/15 01:38:44;;;;;;;6.22;2.72;;;10.70;96.70;;;;;;5037784;28;20045;-86
2022/02/15 01:41:14;;;;;;;4.47;2.30;;;10.70;96.70;;;;;;5019358;28;20048;-87
2022/02/15 01:43:43;;;;;;;4.75;2.50;;;10.70;96.70;;;;;;5019782;28;20073;-86
2022/02/15 01:46:13;;;;;;;5.88;2.90;;;10.70;96.70;;;;;;5022623;28;20052;-86
2022/02/15 01:48:43;;;;;;;8.07;3.45;;;10.60;96.70;;;;;;5038627;28;20077;-86
2022/02/15 01:51:11;;;;;;;5.75;2.80;;;10.60;96.70;;;;;;5022229;28;20068;-86
2022/02/15 01:53:39;;;;;;;5.70;2.55;;;10.60;96.70;;;;;;5025406;28;20060;-86
2022/02/15 01:56:09;;;;;;;7.78;2.88;;;10.60;96.70;;;;;;5020792;28;20401;-87
2022/02/15 01:58:41;;;;;;;6.88;2.78;;;10.60;96.70;;;;;;5020603;28;20075;-87
2022/02/15 02:01:17;;;;;;;4.68;2.70;;;10.50;96.70;;;;;;4997563;28;20046;-86
2022/02/15 02:04:02;;;;;;;5.10;3.20;;;10.50;96.70;;;;;;5021976;28;20661;-86
2022/02/15 02:06:31;;;;;;;6.40;2.75;;;10.60;96.70;;;;;;5019909;28;20077;-86
2022/02/15 02:09:03;;;;;;;4.93;3.10;;;10.60;96.70;;;;;;5020032;28;20050;-86
2022/02/15 02:11:32;;;;;;;6.72;3.40;;;10.60;96.70;;;;;;5003924;28;20510;-86
2022/02/15 02:14:11;;;;;;;7.30;3.10;;;10.60;96.70;;;;;;5021659;28;20092;-85
2022/02/15 02:16:45;;;;;;;7.50;3.47;;;10.60;96.70;;;;;;5022060;28;20069;-86
2022/02/15 02:19:19;;;;;;;5.85;3.10;;;10.60;96.70;;;;;;5024494;28;20033;-86
2022/02/15 02:21:50;;;;;;;7.57;3.20;;;10.70;96.70;;;;;;5034271;28;20064;-86
2022/02/15 02:24:19;;;;;;;9.98;4.13;;;10.70;96.70;;;;;;5038804;28;20056;-86
2022/02/15 02:26:50;;;;;;;6.97;3.22;;;10.70;96.70;;;;;;5006258;28;20045;-86
2022/02/15 02:29:19;;;;;;;7.50;3.25;;;10.70;96.70;;;;;;5008964;28;20069;-86
2022/02/15 02:31:48;;;;;;;7.20;3.38;;;10.70;96.70;;;;;;5025522;28;20054;-86
2022/02/15 02:34:20;;;;;;;6.80;3.20;;;10.80;96.70;;;;;;5025877;28;20042;-85
2022/02/15 02:36:51;;;;;;;8.43;3.08;;;10.80;96.70;;;;;;5023726;28;20200;-86
2022/02/15 02:39:25;;;;;;;8.10;3.33;;;10.80;96.70;;;;;;5022193;28;20533;-86
2022/02/15 02:41:55;;;;;;;9.27;4.43;;;10.90;96.70;;;;;;5009674;28;20091;-84
2022/02/15 02:44:23;;;;;;;6.43;3.22;;;10.80;96.70;;;;;;5039961;28;20041;-84
2022/02/15 02:46:51;;;;;;;8.02;2.88;;;10.80;96.70;;;;;;5009761;28;20510;-84
2022/02/15 02:49:25;;;;;;;5.93;2.15;;;10.70;96.70;;;;;;5023617;28;20056;-84
2022/02/15 02:51:54;;;;;;;4.97;2.50;;;10.70;96.70;;;;;;5007005;28;20057;-84
2022/02/15 02:54:24;;;;;;;4.50;1.65;;;10.70;96.70;;;;;;5006426;28;20528;-84
2022/02/15 02:57:00;;;;;;;4.43;1.50;;;10.70;96.70;;;;;;5020379;28;20053;-84
2022/02/15 02:59:30;;;;;;;3.38;1.73;;;10.70;96.70;;;;;;5008822;28;20059;-84
2022/02/15 03:02:04;;;;;;;3.92;1.83;;;10.70;96.70;;;;;;5023541;28;20053;-84
2022/02/15 03:04:33;;;;;;;4.68;1.58;;;10.70;96.70;;;;;;5021461;28;20060;-84
2022/02/15 03:07:03;;;;;;;2.67;1.80;;;10.70;96.70;;;;;;5012889;28;20045;-84
2022/02/15 03:09:32;;;;;;;5.10;1.80;;;10.70;96.70;;;;;;5023167;28;20413;-83
2022/02/15 03:12:01;;;;;;;2.85;1.42;;;10.70;96.70;;;;;;5024258;28;20045;-84
2022/02/15 03:14:30;;;;;;;4.40;2.03;;;10.70;96.70;;;;;;5009958;28;20055;-83
2022/02/15 03:16:58;;;;;;;5.25;2.03;;;10.70;96.70;;;;;;5022767;28;20084;-84
2022/02/15 03:19:27;;;;;;;4.43;2.00;;;10.70;96.70;;;;;;5023427;28;20060;-83
2022/02/15 03:21:56;;;;;;;4.70;1.75;;;10.70;96.70;;;;;;5026295;28;20087;-84
2022/02/15 03:24:25;;;;;;;3.92;2.10;;;10.60;96.70;;;;;;5040451;28;20131;-84
2022/02/15 03:26:57;;;;;;;3.10;1.52;;;10.60;96.70;;;;;;5025672;28;20363;-84
2022/02/15 03:29:25;;;;;;;4.00;1.58;;;10.60;96.70;;;;;;5023616;28;20136;-84
2022/02/15 03:31:54;;;;;;;2.45;1.42;;;10.60;96.70;;;;;;5017810;28;20033;-83
2022/02/15 03:34:23;;;;;;;2.55;1.20;;;10.60;96.70;;;;;;5022784;28;20099;-84
2022/02/15 03:36:52;;;;;;;2.97;1.30;;;10.70;96.70;;;;;;5023738;28;20037;-83
2022/02/15 03:39:21;;;;;;;2.95;1.20;;;10.70;96.70;;;;;;5005971;28;20156;-84
2022/02/15 03:44:46;;;;;;;3.95;1.40;;;10.70;96.70;;;;;;5023934;28;20128;-83
2022/02/15 03:47:21;;;;;;;2.65;1.17;;;10.70;96.70;;;;;;5038818;28;20057;-84
2022/02/15 03:49:50;;;;;;;2.58;1.33;;;10.70;96.70;;;;;;5022446;28;20054;-84
2022/02/15 03:52:18;;;;;;;3.08;1.35;;;10.70;96.70;;;;;;5023446;28;20655;-83
2022/02/15 03:54:49;;;;;;;5.07;1.55;;;10.70;96.70;;;;;;5007828;28;20054;-84
2022/02/15 03:57:18;;;;;;;2.65;1.55;;;10.70;96.70;;;;;;5037391;28;20641;-84
2022/02/15 03:59:47;;;;;;;3.10;1.20;;;10.70;96.70;;;;;;5021882;28;20029;-83
2022/02/15 04:02:22;;;;;;;1.95;1.10;;;10.70;96.70;;;;;;5039405;28;20188;-83
2022/02/15 04:04:52;;;;;;;1.58;0.82;;;10.60;96.70;;;;;;5024182;28;20037;-84
2022/02/15 04:07:22;;;;;;;2.28;1.02;;;10.60;96.70;;;;;;5021217;28;20045;-83
2022/02/15 04:09:51;;;;;;;1.75;0.85;;;10.50;96.70;;;;;;5018196;28;20042;-84
2022/02/15 04:12:20;;;;;;;2.35;1.23;;;10.50;96.70;;;;;;5008220;28;20148;-84
2022/02/15 04:14:49;;;;;;;2.45;1.20;;;10.50;96.70;;;;;;5023130;28;20622;-84
2022/02/15 04:17:20;;;;;;;2.83;1.08;;;10.50;96.70;;;;;;5021489;28;20057;-83
2022/02/15 04:19:48;;;;;;;3.15;0.47;;;10.40;96.70;;;;;;5023473;28;20573;-84
2022/02/15 04:22:16;;;;;;;1.45;0.52;;;10.40;96.70;;;;;;5022786;28;20431;-83
2022/02/15 04:24:46;;;;;;;1.58;0.50;;;10.40;96.70;;;;;;5007151;28;20512;-84
2022/02/15 04:27:15;;;;;;;1.15;0.50;;;10.40;96.70;;;;;;5041696;28;20065;-83
2022/02/15 04:29:46;;;;;;;1.58;0.68;;;10.40;96.70;;;;;;5055543;28;20041;-83
2022/02/15 04:32:15;;;;;;;2.80;1.00;;;10.30;96.70;;;;;;5038163;28;20050;-83
2022/02/15 04:34:43;;;;;;;4.35;0.80;;;10.30;96.70;;;;;;5007568;28;20037;-84
2022/02/15 04:37:12;;;;;;;1.27;0.60;;;10.30;96.70;;;;;;5009431;28;20065;-84
2022/02/15 04:39:40;;;;;;;3.67;0.82;;;10.30;96.70;;;;;;5021431;28;20961;-84
2022/02/15 04:42:11;;;;;;;3.60;0.65;;;10.30;96.70;;;;;;5024438;28;21157;-83
2022/02/15 04:44:40;;;;;;;4.30;0.68;;;10.20;96.70;;;;;;5021207;28;20056;-83
2022/02/15 04:47:12;;;;;;;1.98;0.60;;;10.20;96.70;;;;;;5007843;28;20041;-83
2022/02/15 04:49:40;;;;;;;1.27;0.43;;;10.20;96.70;;;;;;5020744;28;20037;-83
2022/02/15 04:52:09;;;;;;;2.63;0.70;;;10.20;96.70;;;;;;5023714;28;20201;-83
2022/02/15 04:54:37;;;;;;;2.63;1.13;;;10.20;96.70;;;;;;5021079;28;20052;-80
2022/02/15 04:57:05;;;;;;;1.88;0.80;;;10.10;96.70;;;;;;5024348;28;20041;-81
2022/02/15 04:59:38;;;;;;;2.83;0.60;;;10.10;96.70;;;;;;5042382;28;20067;-81
2022/02/15 05:02:12;;;;;;;3.38;0.70;;;10.10;96.70;;;;;;5024314;28;20098;-81
2022/02/15 05:04:50;;;;;;;4.45;0.77;;;10.10;96.70;;;;;;5032535;28;20068;-81
2022/02/15 05:07:35;;;;;;;2.95;0.70;;;10.10;96.70;;;;;;5040233;28;20129;-81
2022/02/15 05:10:05;;;;;;;1.70;0.65;;;10.10;96.70;;;;;;5022669;28;20079;-82
2022/02/15 05:12:38;;;;;;;3.20;0.80;;;10.10;96.70;;;;;;5022364;28;20046;-81
2022/02/15 05:15:12;;;;;;;1.13;0.75;;;10.10;96.70;;;;;;5023308;28;20415;-81
2022/02/15 05:18:10;;;;;;;2.03;0.68;;;10.10;96.70;;;;;;5036173;28;20461;-82
2022/02/15 05:20:44;;;;;;;1.05;0.50;;;10.20;96.70;;;;;;5021933;28;20064;-81
2022/02/15 05:23:12;;;;;;;2.20;0.70;;;10.10;96.70;;;;;;5021469;28;20049;-81
2022/02/15 05:25:43;;;;;;;2.17;0.80;;;10.10;96.70;;;;;;5020892;28;20103;-81
2022/02/15 05:28:31;;;;;;;2.70;0.80;;;10.10;96.70;;;;;;5023017;28;20142;-83
2022/02/15 05:31:02;;;;;;;2.40;0.85;;;10.10;96.70;;;;;;5025174;28;20055;-82
2022/02/15 05:33:41;;;;;;;1.60;0.60;;;10.10;96.70;;;;;;5034466;28;20636;-83
2022/02/15 05:36:12;;;;;;;2.22;0.88;;;10.10;96.70;;;;;;5018628;28;20499;-83
2022/02/15 05:38:43;;;;;;;1.98;0.50;;;10.10;96.70;;;;;;5018726;28;20053;-83
2022/02/15 05:41:13;;;;;;;4.13;0.57;;;10.10;96.70;;;;;;5038729;28;20057;-84
2022/02/15 05:43:41;;;;;;;3.17;0.50;;;10.10;96.70;;;;;;5019602;28;20045;-83
2022/02/15 05:46:17;;;;;;;2.75;0.55;;;10.10;96.70;;;;;;5020062;28;20060;-83
2022/02/15 05:48:54;;;;;;;2.63;0.63;;;10.10;96.70;;;;;;5020256;28;20045;-83
2022/02/15 05:51:38;;;;;;;1.92;0.65;;;10.10;96.70;;;;;;5020511;28;20295;-83
2022/02/15 05:54:20;;;;;;;2.10;0.90;;;10.10;96.70;;;;;;5017313;28;20419;-83
2022/02/15 05:56:51;;;;;;;4.88;1.23;;;10.10;96.70;;;;;;5021702;28;20092;-83
2022/02/15 05:59:46;;;;;;;1.95;0.93;;;10.10;96.70;;;;;;5020741;28;20053;-83
2022/02/15 06:02:22;;;;;;;5.72;1.20;;;10.20;96.70;;;;;;5020423;28;20111;-83
2022/02/15 06:04:59;;;;;;;4.85;1.40;;;10.20;96.70;;;;;;5021367;28;20531;-83
2022/02/15 06:07:30;;;;;;;5.93;2.03;;;10.30;96.70;;;;;;5021134;28;20580;-82
2022/02/15 06:10:31;;;;;;;6.50;2.75;;;10.20;96.70;;;;;;4949547;28;20100;-83
2022/02/15 06:13:19;;;;;;;6.68;3.22;;;10.20;96.70;;;;;;4945059;28;20039;-83
2022/02/15 06:15:48;;;;;;;6.05;2.25;;;10.30;96.70;;;;;;4950165;28;21621;-83
2022/02/15 06:18:26;;;;;;;7.25;2.15;;;10.30;96.70;;;;;;4947621;28;20073;-83
2022/02/15 06:21:02;;;;;;;3.97;1.95;;;10.30;96.70;;;;;;4943901;28;20085;-83
2022/02/15 06:23:31;;;;;;;2.70;1.40;;;10.30;96.70;;;;;;4946343;28;20050;-83
2022/02/15 06:26:07;;;;;;;4.47;1.60;;;10.30;96.70;;;;;;4943907;28;20750;-83
2022/02/15 06:28:55;;;;;;;4.03;1.40;;;10.30;96.70;;;;;;4945577;28;20603;-83
2022/02/15 06:31:31;;;;;;;2.88;1.20;;;10.30;96.70;;;;;;4946203;28;20078;-84
2022/02/15 06:34:00;;;;;;;2.15;1.00;;;10.30;96.70;;;;;;4961159;28;20047;-83
2022/02/15 06:36:30;;;;;;;2.03;0.90;;;10.30;96.70;;;;;;4946156;28;20049;-83
2022/02/15 06:39:02;;;;;;;5.20;1.40;;;10.40;96.70;;;;;;4960127;28;20050;-81
2022/02/15 06:41:30;;;;;;;1.80;0.90;;;10.40;96.70;;;;;;4943949;28;20054;-82
2022/02/15 06:44:10;;;;;;;1.92;0.93;;;10.40;96.70;;;;;;4944304;28;20149;-83
2022/02/15 06:46:47;;;;;;;1.83;1.10;;;10.40;96.70;;;;;;4997720;28;20053;-83
2022/02/15 06:49:23;;;;;;;2.67;1.20;;;10.40;96.70;;;;;;5020203;28;20136;-83
2022/02/15 06:52:13;;;;;;;3.35;1.50;;;10.40;96.70;;;;;;5039145;28;20085;-83
2022/02/15 06:54:43;;;;;;;3.42;1.73;;;10.40;96.70;;;;;;5007392;28;20042;-83
2022/02/15 06:57:17;;;;;;;4.28;1.65;;;10.50;96.70;;;;;;5020765;28;20094;-84
2022/02/15 06:59:46;;;;;;;2.20;1.20;;;10.40;96.70;;;;;;5020191;28;20560;-83
2022/02/15 07:02:14;;;;;;;2.95;1.33;;;10.40;96.70;;;;;;5000116;28;20045;-84
2022/02/15 07:04:43;;;;;;;3.50;1.58;;;10.50;96.70;;;;;;5021105;28;20037;-83
2022/02/15 07:07:13;;;;;;;3.33;1.80;;;10.50;96.70;;;;;;5020528;28;20353;-83
2022/02/15 07:09:48;;;;;;;3.63;2.00;;;10.50;96.70;;;;;;5008879;28;20041;-84
2022/02/15 07:12:35;;;;;;;9.80;5.15;;;10.60;96.70;;;;;;5008348;28;20049;-84
2022/02/15 07:15:15;;;;;;;9.00;4.97;;;10.50;96.70;;;;;;5023691;28;20055;-83
2022/02/15 07:17:48;;;;;;;8.88;5.05;;;10.50;96.70;;;;;;5041376;28;20045;-83
2022/02/15 07:20:36;;;;;;;4.97;3.10;;;10.50;96.70;;;;;;5023311;28;20132;-83
2022/02/15 07:23:35;;;;;;;5.80;3.13;;;10.50;96.70;;;;;;5008200;28;20045;-83
2022/02/15 07:26:21;;;;;;;5.60;2.70;;;10.50;96.70;;;;;;5024499;28;20045;-83
2022/02/15 07:29:16;;;;;;;7.00;3.13;;;10.50;96.70;;;;;;4960853;28;20056;-84
2022/02/15 07:32:05;;;;;;;5.43;2.50;;;10.50;96.70;;;;;;4952173;28;20102;-83
2022/02/15 07:34:34;;;;;;;8.88;3.25;;;10.50;96.70;;;;;;4962574;28;20513;-83
2022/02/15 07:37:04;;;;;;;5.82;1.80;;;10.40;96.70;;;;;;4948117;28;20149;-83
2022/02/15 07:39:34;;;;;;;6.78;3.00;;;10.30;96.70;;;;;;4978708;28;20062;-83
2022/02/15 07:42:02;;;;;;;8.98;2.35;;;10.30;96.70;;;;;;4979086;28;20145;-83
2022/02/15 07:44:45;;;;;;;4.93;1.75;;;10.30;96.70;;;;;;4965011;28;20047;-83
2022/02/15 07:47:13;;;;;;;4.13;1.15;;;10.30;96.70;;;;;;4963777;28;20050;-83
2022/02/15 07:49:43;;;;;;;2.47;0.90;;;10.20;96.70;;;;;;4962759;28;20049;-83
2022/02/15 07:52:12;;;;;;;3.17;1.13;;;10.20;96.70;;;;;;4964051;28;20182;-83
2022/02/15 07:54:41;;;;;;;1.83;0.85;;;10.20;96.70;;;;;;4960004;28;20134;-83
2022/02/15 07:57:11;;;;;;;3.67;1.20;;;10.20;96.70;;;;;;4950472;28;20420;-82
2022/02/15 07:59:39;;;;;;;5.03;1.27;;;10.20;96.70;;;;;;4980530;28;20705;-82
2022/02/15 08:02:08;;;;;;;6.20;1.25;;;10.20;96.70;;;;;;4964962;28;20105;-83
2022/02/15 08:04:36;;;;;;;3.10;1.38;;;10.20;96.70;;;;;;4962930;28;20607;-83
2022/02/15 08:07:07;;;;;;;6.43;1.52;;;10.20;96.70;;;;;;5045149;28;20049;-83
2022/02/15 08:09:37;;;;;;;2.90;1.33;;;10.20;96.70;;;;;;5023286;28;20041;-83
2022/02/15 08:12:17;;;;;;;3.88;1.52;;;10.30;96.70;;;;;;5020030;28;20049;-83
2022/02/15 08:14:46;;;;;;;4.70;1.80;;;10.30;96.70;;;;;;5023241;28;20042;-83
2022/02/15 08:17:14;;;;;;;4.32;2.00;;;10.30;96.70;;;;;;5022833;28;20041;-81
2022/02/15 08:19:43;;;;;;;4.35;1.88;;;10.40;96.70;;;;;;5021871;28;20410;-82
2022/02/15 08:22:12;;;;;;;5.90;2.08;;;10.50;96.70;;;;;;5021286;28;20123;-81
2022/02/15 08:24:42;;;;;;;4.97;2.22;;;10.50;96.70;;;;;;5022028;28;20065;-82
2022/02/15 08:27:12;;;;;;;5.38;3.15;;;10.60;96.70;;;;;;5023031;28;20414;-85
2022/02/15 08:29:41;;;;;;;4.32;2.10;;;10.60;96.70;;;;;;5024206;28;20051;-83
2022/02/15 08:32:09;;;;;;;5.05;2.10;;;10.60;96.70;;;;;;5022281;28;20612;-84
2022/02/15 08:34:40;;;;;;;6.97;2.63;;;10.60;96.70;;;;;;5023703;28;20038;-84
2022/02/15 08:37:08;;;;;;;5.03;2.65;;;10.60;96.70;;;;;;5024015;28;20059;-82
2022/02/15 08:39:37;;;;;;;7.65;2.95;;;10.60;96.70;;;;;;5024770;28;20051;-86
2022/02/15 08:42:06;;;;;;;6.93;2.67;;;10.70;96.70;;;;;;5039016;28;20136;-82
2022/02/15 08:44:36;;;;;;;6.90;2.80;;;10.60;96.70;;;;;;5022252;28;20136;-83
2022/02/15 08:47:06;;;;;;;5.68;2.90;;;10.60;96.70;;;;;;5037832;28;20038;-81
2022/02/15 08:49:35;;;;;;;7.82;3.30;;;10.50;96.70;;;;;;5021865;28;20449;-82
2022/02/15 08:52:04;;;;;;;4.72;3.17;;;10.50;96.70;;;;;;5004129;28;20507;-82
2022/02/15 08:54:33;;;;;;;6.00;3.65;;;10.50;96.70;;;;;;5020924;28;20048;-83
2022/02/15 08:57:01;;;;;;;4.13;2.72;;;10.50;96.70;;;;;;5023953;28;20495;-85
2022/02/15 08:59:29;;;;;;;5.15;2.78;;;10.50;96.70;;;;;;5021990;28;20041;-85
2022/02/15 09:01:59;;;;;;;5.97;3.13;;;10.40;96.70;;;;;;5023350;28;20038;-84
2022/02/15 09:04:27;;;;;;;7.05;3.40;;;10.40;96.70;;;;;;5023241;28;20133;-83
2022/02/15 09:06:55;;;;;;;6.80;4.32;;;10.40;96.70;;;;;;5020451;28;20034;-84
2022/02/15 09:09:23;;;;;;;4.93;3.80;;;10.50;96.70;;;;;;5024121;28;20315;-84
2022/02/15 09:11:51;;;;;;;6.18;3.92;;;10.80;96.70;;;;;;5023979;28;20046;-81
2022/02/15 09:14:19;;;;;;;5.45;4.57;;;11.00;96.70;;;;;;5007674;28;20518;-81
2022/02/15 09:16:48;;;;;;;5.18;4.47;;;11.10;96.70;;;;;;5049655;28;20085;-81
2022/02/15 09:19:17;;;;;;;6.00;4.57;;;11.20;96.70;;;;;;5019162;28;20468;-82
2022/02/15 09:21:50;;;;;;;7.60;4.20;;;11.10;96.70;;;;;;5018914;28;20128;-84
2022/02/15 09:24:18;;;;;;;9.43;5.00;;;11.10;96.70;;;;;;5023311;28;20083;-83
2022/02/15 09:26:47;;;;;;;7.45;4.72;;;11.00;96.70;;;;;;5041466;28;20188;-84
2022/02/15 09:29:18;;;;;;;4.82;4.38;;;11.00;96.70;;;;;;5008791;28;20058;-84
2022/02/15 09:31:46;;;;;;;7.55;5.30;;;11.00;96.70;;;;;;5036240;28;20403;-84
2022/02/15 09:34:22;;;;;;;6.93;4.65;;;10.90;96.70;;;;;;5003819;28;20056;-83
2022/02/15 09:36:51;;;;;;;5.22;4.45;;;11.00;96.70;;;;;;5018559;28;20049;-83
2022/02/15 09:39:21;;;;;;;5.80;5.20;;;11.00;96.70;;;;;;5019634;28;20034;-84
2022/02/15 09:41:50;;;;;;;8.25;5.57;;;10.90;96.70;;;;;;5020746;28;20045;-84
2022/02/15 09:44:18;;;;;;;6.70;5.60;;;10.80;96.70;;;;;;5035485;28;20442;-84
2022/02/15 09:46:47;;;;;;;8.10;5.43;;;10.70;96.70;;;;;;5019943;28;20485;-83
2022/02/15 09:52:06;;;;;;;8.45;6.00;;;10.60;96.70;;;;;;5017598;28;20037;-82
2022/02/15 09:54:34;;;;;;;7.95;6.35;;;10.50;96.70;;;;;;5017621;28;20081;-82
2022/02/15 09:57:04;;;;;;;7.18;6.05;;;10.40;96.70;;;;;;5019408;28;20104;-82
2022/02/15 09:59:32;;;;;;;10.13;6.90;;;10.30;96.70;;;;;;5019643;28;20498;-82
2022/02/15 10:02:02;;;;;;;10.15;7.68;;;10.20;96.70;;;;;;5018362;28;20122;-81
2022/02/15 10:04:33;;;;;;;10.93;8.35;;;10.20;96.70;;;;;;5020857;28;20037;-81
2022/02/15 10:07:02;;;;;;;9.85;7.88;;;10.10;96.70;;;;;;5004315;28;20044;-81
2022/02/15 10:09:30;;;;;;;8.98;7.32;;;10.00;96.70;;;;;;5020640;28;20497;-81
2022/02/15 10:12:04;;;;;;;12.63;7.90;;;10.00;96.70;;;;;;5004935;28;20052;-81
2022/02/15 10:14:36;;;;;;;8.27;7.28;;;10.00;96.70;;;;;;5017906;28;20610;-82
2022/02/15 10:17:07;;;;;;;9.55;8.15;;;9.90;96.70;;;;;;5019582;28;20072;-81
2022/02/15 10:19:37;;;;;;;11.07;8.75;;;9.90;96.70;;;;;;5036087;28;20053;-81
2022/02/15 10:22:06;;;;;;;10.57;8.07;;;9.90;96.70;;;;;;5037493;28;20049;-82
2022/02/15 10:24:37;;;;;;;11.75;9.45;;;9.90;96.70;;;;;;5005107;28;20053;-81
2022/02/15 10:27:06;;;;;;;9.90;8.18;;;10.00;96.70;;;;;;5018856;28;20049;-81
2022/02/15 10:29:36;;;;;;;8.98;7.82;;;10.00;96.70;;;;;;5016907;28;20537;-82
2022/02/15 10:32:08;;;;;;;12.52;9.20;;;10.00;96.70;;;;;;5017437;28;20067;-82
2022/02/15 10:34:47;;;;;;;10.68;7.82;;;10.10;96.70;;;;;;5019668;28;20045;-81
2022/02/15 10:37:17;;;;;;;10.20;9.02;;;10.00;96.70;;;;;;5020219;28;20173;-81
2022/02/15 10:39:46;;;;;;;11.55;8.63;;;10.00;96.70;;;;;;5037468;28;20504;-81
2022/02/15 10:42:16;;;;;;;10.60;7.60;;;10.00;96.70;;;;;;5020828;28;20033;-83
2022/02/15 10:44:59;;;;;;;8.52;7.63;;;9.90;96.70;;;;;;5021574;28;20037;-82
2022/02/15 10:47:29;;;;;;;11.23;8.70;;;9.90;96.70;;;;;;5039194;28;20091;-82
2022/02/15 10:50:00;;;;;;;10.93;8.60;;;9.90;96.70;;;;;;5023241;28;20458;-82
2022/02/15 10:52:29;;;;;;;11.90;9.68;;;10.00;96.70;;;;;;5038342;28;20144;-82
2022/02/15 10:54:57;;;;;;;13.45;10.25;;;10.10;96.70;;;;;;5023489;28;20052;-81
2022/02/15 10:57:28;;;;;;;11.70;9.05;;;10.10;96.70;;;;;;5026264;28;20045;-82
2022/02/15 10:59:58;;;;;;;10.77;9.68;;;10.10;96.70;;;;;;5010458;28;20046;-81
2022/02/15 11:02:30;;;;;;;12.43;9.73;;;10.10;96.70;;;;;;5024173;28;20041;-83
2022/02/15 11:05:03;;;;;;;13.18;11.18;;;10.00;96.70;;;;;;5021623;28;20042;-81
2022/02/15 11:07:32;;;;;;;13.65;10.82;;;10.00;96.70;;;;;;5039705;28;20046;-81
2022/02/15 11:10:14;;;;;;;11.00;9.77;;;10.00;96.70;;;;;;5022647;28;20584;-82
2022/02/15 11:12:46;;;;;;;11.52;10.15;;;10.00;96.70;;;;;;5019599;28;20053;-82
2022/02/15 11:15:20;;;;;;;14.25;10.45;;;10.00;96.70;;;;;;5023641;28;20037;-81
2022/02/15 11:17:51;;;;;;;10.88;9.63;;;9.90;96.70;;;;;;5022616;28;20750;-80
2022/02/15 11:20:23;;;;;;;11.80;10.15;;;9.80;96.70;;;;;;5023221;28;20164;-81
2022/02/15 11:22:53;;;;;;;12.38;10.70;;;9.70;96.70;;;;;;5020478;28;20052;-80
2022/02/15 11:25:29;;;;;;;12.32;10.00;;;9.70;96.70;;;;;;5040065;28;20494;-80
2022/02/15 11:28:06;;;;;;;13.07;9.82;;;9.80;96.70;;;;;;5022138;28;20059;-80
2022/02/15 11:30:53;;;;;;;11.25;10.15;;;9.90;96.70;;;;;;5023812;28;20053;-80
2022/02/15 11:33:23;;;;;;;11.00;9.90;;;10.10;96.70;;;;;;5022562;28;20045;-80
2022/02/15 11:35:54;;;;;;;11.75;10.52;;;10.10;96.70;;;;;;5020506;28;20048;-80
2022/02/15 11:38:24;;;;;;;11.95;9.98;;;10.00;96.70;;;;;;5023335;28;20472;-80
2022/02/15 11:41:03;;;;;;;12.80;10.25;;;10.00;96.70;;;;;;5022717;28;20050;-81
2022/02/15 11:43:32;;;;;;;11.52;10.18;;;10.00;96.70;;;;;;5023530;28;20057;-80
2022/02/15 11:46:02;;;;;;;12.82;10.32;;;9.90;96.70;;;;;;5022791;28;20694;-80
2022/02/15 11:48:37;;;;;;;14.43;10.43;;;10.00;96.70;;;;;;5022752;28;20057;-80
2022/02/15 11:51:18;;;;;;;14.85;11.10;;;9.90;96.70;;;;;;5019527;28;20057;-80
2022/02/15 11:53:47;;;;;;;10.98;9.68;;;10.00;96.70;;;;;;5021980;28;20072;-80
2022/02/15 11:56:17;;;;;;;11.35;10.18;;;9.80;96.70;;;;;;5019524;28;20056;-80
2022/02/15 11:58:49;;;;;;;12.52;10.88;;;9.80;96.70;;;;;;5030459;28;20049;-80
2022/02/15 12:01:24;;;;;;;10.82;9.70;;;9.90;96.70;;;;;;5022682;28;20045;-80
2022/02/15 12:03:53;;;;;;;11.40;10.18;;;9.80;96.70;;;;;;5022288;28;20045;-80
2022/02/15 12:06:35;;;;;;;11.82;10.05;;;9.80;96.70;;;;;;5007027;28;20046;-80
2022/02/15 12:09:04;;;;;;;10.10;9.10;;;9.70;96.70;;;;;;5022495;28;20152;-80
2022/02/15 12:11:34;;;;;;;10.38;9.38;;;9.60;96.70;;;;;;5021000;28;20173;-79
2022/02/15 12:14:07;;;;;;;10.68;9.57;;;9.60;96.70;;;;;;5021694;28;20052;-80
2022/02/15 12:16:46;;;;;;;11.57;10.35;;;9.60;96.70;;;;;;5018610;28;20041;-80
2022/02/15 12:19:26;;;;;;;10.98;9.40;;;9.70;96.70;;;;;;5022556;28;20056;-80
2022/02/15 12:21:58;;;;;;;11.82;10.20;;;9.70;96.70;;;;;;5016875;28;20522;-79
2022/02/15 12:24:30;;;;;;;10.68;9.27;;;9.70;96.70;;;;;;5020103;28;20076;-82
2022/02/15 12:27:00;;;;;;;10.80;8.85;;;9.70;96.70;;;;;;5023469;28;20042;-83
2022/02/15 12:29:30;;;;;;;10.25;9.05;;;9.70;96.70;;;;;;5038769;28;20163;-81
2022/02/15 12:31:59;;;;;;;11.68;8.77;;;9.70;96.70;;;;;;5022522;28;20034;-82
2022/02/15 12:34:28;;;;;;;11.32;9.40;;;9.60;96.70;;;;;;5023532;28;20487;-81
2022/02/15 12:36:58;;;;;;;12.13;9.40;;;9.60;96.70;;;;;;5021394;28;20594;-81
2022/02/15 12:39:34;;;;;;;11.45;10.25;;;9.70;96.70;;;;;;5023005;28;20554;-81
2022/02/15 12:42:10;;;;;;;10.88;9.77;;;9.60;96.70;;;;;;5022429;28;20045;-81
2022/02/15 12:44:39;;;;;;;10.27;9.13;;;9.50;96.70;;;;;;5017416;28;20056;-80
2022/02/15 12:47:08;;;;;;;10.55;9.45;;;9.50;96.70;;;;;;5020266;28;20049;-81
2022/02/15 12:49:36;;;;;;;11.00;8.93;;;9.50;96.70;;;;;;5005543;28;20049;-81
2022/02/15 12:52:10;;;;;;;10.23;8.63;;;9.50;96.70;;;;;;5021696;28;20046;-81
2022/02/15 12:54:49;;;;;;;10.52;8.57;;;9.50;96.70;;;;;;5022599;28;20061;-81
2022/02/15 12:57:20;;;;;;;10.00;8.57;;;9.60;96.70;;;;;;5021355;28;20042;-81
2022/02/15 12:59:52;;;;;;;10.70;9.57;;;9.60;96.70;;;;;;5022222;28;20033;-80
2022/02/15 13:02:25;;;;;;;11.55;9.20;;;9.70;96.70;;;;;;5020162;28;20056;-81
2022/02/15 13:04:56;;;;;;;10.70;9.60;;;9.70;96.70;;;;;;5018258;28;20092;-81
2022/02/15 13:07:27;;;;;;;12.35;10.95;;;9.70;96.70;;;;;;5018429;28;20041;-81
2022/02/15 13:10:00;;;;;;;11.07;9.65;;;9.70;96.70;;;;;;5023887;28;20060;-81
2022/02/15 13:12:33;;;;;;;11.45;9.52;;;9.70;96.70;;;;;;5037633;28;20088;-81
2022/02/15 13:15:02;;;;;;;11.00;9.02;;;9.70;96.70;;;;;;5018679;28;20095;-81